Time;durP1;ratioP1;P1;durP2;ratioP2;P2;SDS_P1;SDS_P2;PMS_P1;PMS_P2;Temp;Humidity;BMP_temperature;BMP_pressure;BME280_temperature;BME280_humidity;BME280_pressure;Samples;Min_cycle;Max_cycle;Signal;HPM_P1;HPM_P2
2023/06/09 00:01:02;;;;;;;;;;;16.90;99.90;;;;;;5044510;28;19929;-73
2023/06/09 00:03:30;;;;;;;;;;;16.90;99.90;;;;;;5044039;28;19932;-73
2023/06/09 00:05:59;;;;;;;;;;;16.80;99.90;;;;;;5046019;28;19925;-75
2023/06/09 00:08:25;;;;;;;;;;;16.80;99.90;;;;;;5043270;28;20408;-74
2023/06/09 00:10:52;;;;;;;;;;;16.80;99.90;;;;;;5046025;28;20521;-74
2023/06/09 00:13:20;;;;;;;;;;;16.70;99.90;;;;;;5037122;28;19925;-74
2023/06/09 00:15:48;;;;;;;;;;;16.70;99.90;;;;;;5038608;28;20292;-75
2023/06/09 00:18:15;;;;;;;;;;;16.60;99.90;;;;;;5042642;28;19932;-74
2023/06/09 00:20:42;;;;;;;;;;;16.70;99.90;;;;;;5043789;28;20359;-73
2023/06/09 00:23:09;;;;;;;;;;;16.50;99.90;;;;;;5040713;28;19928;-74
2023/06/09 00:25:36;;;;;;;;;;;16.50;99.90;;;;;;5042440;28;19931;-74
2023/06/09 00:28:03;;;;;;;;;;;16.50;99.90;;;;;;5044461;28;19933;-74
2023/06/09 00:30:29;;;;;;;;;;;16.50;99.90;;;;;;5033839;28;19925;-74
2023/06/09 00:32:58;;;;;;;;;;;16.40;99.90;;;;;;5038579;28;19932;-74
2023/06/09 00:35:25;;;;;;;;;;;16.40;99.90;;;;;;5042474;28;19975;-74
2023/06/09 00:37:52;;;;;;;;;;;16.40;99.90;;;;;;5043942;28;19932;-75
2023/06/09 00:40:20;;;;;;;;;;;16.40;99.90;;;;;;5043308;28;19925;-74
2023/06/09 00:42:47;;;;;;;;;;;16.40;99.90;;;;;;5043586;28;20023;-74
2023/06/09 00:45:14;;;;;;;;;;;16.40;99.90;;;;;;5043533;28;19925;-74
2023/06/09 00:47:41;;;;;;;;;;;16.40;99.90;;;;;;5037556;28;20020;-74
2023/06/09 00:50:12;;;;;;;;;;;16.40;99.90;;;;;;5044315;28;19924;-73
2023/06/09 00:52:39;;;;;;;;;;;16.40;99.90;;;;;;5052937;28;19924;-72
2023/06/09 00:55:06;;;;;;;;;;;16.40;99.90;;;;;;5038140;28;19991;-74
2023/06/09 00:57:34;;;;;;;;;;;16.30;99.90;;;;;;5043465;28;19932;-75
2023/06/09 01:00:00;;;;;;;;;;;16.30;99.90;;;;;;5045306;28;19978;-74
2023/06/09 01:02:27;;;;;;;;;;;16.30;99.90;;;;;;5034882;28;19932;-73
2023/06/09 01:04:54;;;;;;;;;;;16.20;99.90;;;;;;5045301;28;19932;-74
2023/06/09 01:07:31;;;;;;;;;;;16.20;99.90;;;;;;5041955;28;19932;-74
2023/06/09 01:10:02;;;;;;;;;;;16.10;99.90;;;;;;5031392;28;19925;-74
2023/06/09 01:12:32;;;;;;;;;;;16.00;99.90;;;;;;5037190;28;20448;-73
2023/06/09 01:15:04;;;;;;;;;;;16.00;99.90;;;;;;5039967;28;19929;-74
2023/06/09 01:17:32;;;;;;;;;;;16.00;99.90;;;;;;5041563;28;19941;-74
2023/06/09 01:20:04;;;;;;;;;;;15.90;99.90;;;;;;5065287;28;19929;-74
2023/06/09 01:22:38;;;;;;;;;;;15.90;99.90;;;;;;5038291;28;20419;-74
2023/06/09 01:25:10;;;;;;;;;;;15.90;99.90;;;;;;5040975;28;19925;-74
2023/06/09 01:27:44;;;;;;;;;;;15.80;99.90;;;;;;5034557;28;19982;-74
2023/06/09 01:30:13;;;;;;;;;;;15.70;99.90;;;;;;5037047;28;19925;-75
2023/06/09 01:32:41;;;;;;;;;;;15.60;99.90;;;;;;5041170;28;19932;-75
2023/06/09 01:35:09;;;;;;;;;;;15.50;99.90;;;;;;5041248;28;19924;-75
2023/06/09 01:37:36;;;;;;;;;;;15.50;99.90;;;;;;5037959;28;19929;-75
2023/06/09 01:40:03;;;;;;;;;;;15.40;99.90;;;;;;5031601;28;19929;-75
2023/06/09 01:42:30;;;;;;;;;;;15.40;99.90;;;;;;5036611;28;19925;-74
2023/06/09 01:44:58;;;;;;;;;;;15.50;99.90;;;;;;5042156;28;19971;-75
2023/06/09 01:47:27;;;;;;;;;;;15.40;99.90;;;;;;5034997;28;19925;-75
2023/06/09 01:49:57;;;;;;;;;;;15.40;99.90;;;;;;5043176;28;19925;-75
2023/06/09 01:52:26;;;;;;;;;;;15.40;99.90;;;;;;5042320;28;19950;-74
2023/06/09 01:54:55;;;;;;;;;;;15.40;99.90;;;;;;5044843;28;19929;-75
2023/06/09 01:57:24;;;;;;;;;;;15.30;99.90;;;;;;5041671;28;20016;-75
2023/06/09 01:59:53;;;;;;;;;;;15.20;99.90;;;;;;5053866;28;19925;-75
2023/06/09 02:02:23;;;;;;;;;;;15.20;99.90;;;;;;5031279;28;20357;-74
2023/06/09 02:04:52;;;;;;;;;;;15.20;99.90;;;;;;5050049;28;19929;-74
2023/06/09 02:07:21;;;;;;;;;;;15.20;99.90;;;;;;5034346;28;19925;-75
2023/06/09 02:09:49;;;;;;;;;;;15.20;99.90;;;;;;5039830;28;19991;-75
2023/06/09 02:12:16;;;;;;;;;;;15.10;99.90;;;;;;5043802;28;19925;-75
2023/06/09 02:14:43;;;;;;;;;;;15.10;99.90;;;;;;5032423;28;20408;-74
2023/06/09 02:17:12;;;;;;;;;;;15.00;99.90;;;;;;5041038;28;19952;-75
2023/06/09 02:19:41;;;;;;;;;;;15.00;99.90;;;;;;5033506;28;19933;-74
2023/06/09 02:22:08;;;;;;;;;;;14.90;99.90;;;;;;5033308;28;19931;-75
2023/06/09 02:24:35;;;;;;;;;;;14.90;99.90;;;;;;5037049;28;19925;-74
2023/06/09 02:27:03;;;;;;;;;;;14.80;99.90;;;;;;5054095;28;20424;-75
2023/06/09 02:29:31;;;;;;;;;;;14.70;99.90;;;;;;5053748;28;19969;-74
2023/06/09 02:31:59;;;;;;;;;;;14.70;99.90;;;;;;5028119;28;19925;-75
2023/06/09 02:34:27;;;;;;;;;;;14.70;99.90;;;;;;5034740;28;20450;-74
2023/06/09 02:36:58;;;;;;;;;;;14.70;99.90;;;;;;5032682;28;20396;-74
2023/06/09 02:39:25;;;;;;;;;;;14.70;99.90;;;;;;5034827;28;19925;-74
2023/06/09 02:41:51;;;;;;;;;;;14.70;99.90;;;;;;5035939;28;19925;-74
2023/06/09 02:44:18;;;;;;;;;;;14.80;99.90;;;;;;5047344;28;20023;-75
2023/06/09 02:46:45;;;;;;;;;;;14.80;99.90;;;;;;5038807;28;19932;-74
2023/06/09 02:49:12;;;;;;;;;;;14.80;99.90;;;;;;5030324;28;19932;-75
2023/06/09 02:51:41;;;;;;;;;;;14.90;99.90;;;;;;5033055;28;19926;-74
2023/06/09 02:54:11;;;;;;;;;;;14.80;99.90;;;;;;5030815;28;19925;-74
2023/06/09 02:56:39;;;;;;;;;;;14.80;99.90;;;;;;5036866;28;20350;-75
2023/06/09 02:59:07;;;;;;;;;;;14.80;99.90;;;;;;5039576;28;20313;-75
2023/06/09 03:01:36;;;;;;;;;;;14.70;99.90;;;;;;5034242;28;19974;-74
2023/06/09 03:04:06;;;;;;;;;;;14.70;99.90;;;;;;5039629;28;20329;-74
2023/06/09 03:06:35;;;;;;;;;;;14.70;99.90;;;;;;5039568;28;20402;-75
2023/06/09 03:09:03;;;;;;;;;;;14.70;99.90;;;;;;5042307;28;20020;-74
2023/06/09 03:11:32;;;;;;;;;;;14.70;99.90;;;;;;5058077;28;19960;-75
2023/06/09 03:14:00;;;;;;;;;;;14.70;99.90;;;;;;5039467;28;19925;-74
2023/06/09 03:16:28;;;;;;;;;;;14.80;99.90;;;;;;5055910;28;20490;-75
2023/06/09 03:18:55;;;;;;;;;;;14.80;99.90;;;;;;5035501;28;19932;-75
2023/06/09 03:21:24;;;;;;;;;;;14.80;99.90;;;;;;5041038;28;19925;-75
2023/06/09 03:23:52;;;;;;;;;;;14.80;99.90;;;;;;5034673;28;19940;-75
2023/06/09 03:26:19;;;;;;;;;;;14.80;99.90;;;;;;5064336;28;20392;-75
2023/06/09 03:28:48;;;;;;;;;;;14.80;99.90;;;;;;5040672;28;20008;-75
2023/06/09 03:31:17;;;;;;;;;;;14.80;99.90;;;;;;5034765;28;19933;-75
2023/06/09 03:33:46;;;;;;;;;;;14.90;99.90;;;;;;5040333;28;20011;-75
2023/06/09 03:36:13;;;;;;;;;;;14.90;99.90;;;;;;5037332;28;20016;-74
2023/06/09 03:38:40;;;;;;;;;;;14.80;99.90;;;;;;5042462;28;19925;-75
2023/06/09 03:41:06;;;;;;;;;;;14.80;99.90;;;;;;5033725;28;20027;-75
2023/06/09 03:43:33;;;;;;;;;;;14.80;99.90;;;;;;5044697;28;20300;-74
2023/06/09 03:46:02;;;;;;;;;;;14.80;99.90;;;;;;5038788;28;19926;-75
2023/06/09 03:48:31;;;;;;;;;;;14.80;99.90;;;;;;5036314;28;20288;-75
2023/06/09 03:50:57;;;;;;;;;;;14.80;99.90;;;;;;5042872;28;19956;-74
2023/06/09 03:53:25;;;;;;;;;;;14.80;99.90;;;;;;5039782;28;19925;-75
2023/06/09 03:55:52;;;;;;;;;;;14.80;99.90;;;;;;5040215;28;19925;-73
2023/06/09 03:58:20;;;;;;;;;;;14.80;99.90;;;;;;5036356;28;20360;-75
2023/06/09 04:00:48;;;;;;;;;;;14.80;99.90;;;;;;5043644;28;19924;-74
2023/06/09 04:03:17;;;;;;;;;;;14.90;99.90;;;;;;5065753;28;19929;-75
2023/06/09 04:05:44;;;;;;;;;;;14.90;99.90;;;;;;5033956;28;20476;-74
2023/06/09 04:08:12;;;;;;;;;;;14.90;99.90;;;;;;5030843;28;19932;-74
2023/06/09 04:10:39;;;;;;;;;;;14.90;99.90;;;;;;5040128;28;19960;-71
2023/06/09 04:13:05;;;;;;;;;;;14.90;99.90;;;;;;5049517;28;20389;-73
2023/06/09 04:15:32;;;;;;;;;;;15.00;99.90;;;;;;5039311;28;19929;-74
2023/06/09 04:18:03;;;;;;;;;;;15.00;99.90;;;;;;5033984;28;20265;-74
2023/06/09 04:20:35;;;;;;;;;;;15.00;99.90;;;;;;5065153;28;19925;-74
2023/06/09 04:23:03;;;;;;;;;;;15.10;99.90;;;;;;5032257;28;19940;-74
2023/06/09 04:25:34;;;;;;;;;;;15.10;99.90;;;;;;5035770;28;19948;-74
2023/06/09 04:28:06;;;;;;;;;;;15.10;99.90;;;;;;5036687;28;20438;-74
2023/06/09 04:30:34;;;;;;;;;;;15.20;99.90;;;;;;5041201;28;19936;-74
2023/06/09 04:33:03;;;;;;;;;;;15.20;99.90;;;;;;5052691;28;20376;-73
2023/06/09 04:35:31;;;;;;;;;;;15.30;99.90;;;;;;5058645;28;19925;-74
2023/06/09 04:38:01;;;;;;;;;;;15.40;99.90;;;;;;5032204;28;20380;-73
2023/06/09 04:40:29;;;;;;;;;;;15.50;99.90;;;;;;5044558;28;20315;-74
2023/06/09 04:42:57;;;;;;;;;;;15.50;99.90;;;;;;5044617;28;19925;-81
2023/06/09 04:45:27;;;;;;;;;;;15.60;99.90;;;;;;5039474;28;19925;-73
2023/06/09 04:47:59;;;;;;;;;;;15.70;99.90;;;;;;5058154;28;20012;-74
2023/06/09 04:50:30;;;;;;;;;;;15.70;99.90;;;;;;5039281;28;20380;-74
2023/06/09 04:52:57;;;;;;;;;;;15.80;99.90;;;;;;5038881;28;20019;-73
2023/06/09 04:55:26;;;;;;;;;;;15.80;99.90;;;;;;5032783;28;20016;-73
2023/06/09 04:57:55;;;;;;;;;;;15.90;99.90;;;;;;5043587;28;20417;-74
2023/06/09 05:00:23;;;;;;;;;;;16.00;99.90;;;;;;5034915;28;19925;-74
2023/06/09 05:02:51;;;;;;;;;;;16.10;99.90;;;;;;5034897;28;19926;-74
2023/06/09 05:05:18;;;;;;;;;;;16.20;99.90;;;;;;5050401;28;20299;-74
2023/06/09 05:07:45;;;;;;;;;;;16.30;99.90;;;;;;5041868;28;19936;-73
2023/06/09 05:10:12;;;;;;;;;;;16.40;99.90;;;;;;5043359;28;20015;-74
2023/06/09 05:12:40;;;;;;;;;;;16.50;99.90;;;;;;5037887;28;20388;-74
2023/06/09 05:15:09;;;;;;;;;;;16.60;99.90;;;;;;5041456;28;19933;-74
2023/06/09 05:17:36;;;;;;;;;;;16.70;99.90;;;;;;5060032;28;20346;-74
2023/06/09 05:20:05;;;;;;;;;;;16.80;99.90;;;;;;5034980;28;20331;-75
2023/06/09 05:22:35;;;;;;;;;;;17.00;99.90;;;;;;5060410;28;19955;-74
2023/06/09 05:25:02;;;;;;;;;;;17.10;99.90;;;;;;5038879;28;19932;-73
2023/06/09 05:27:29;;;;;;;;;;;17.20;99.90;;;;;;5056784;28;19925;-75
2023/06/09 05:29:58;;;;;;;;;;;17.20;99.90;;;;;;5039629;28;19929;-74
2023/06/09 05:32:26;;;;;;;;;;;17.30;99.90;;;;;;5042493;28;19929;-74
2023/06/09 05:34:53;;;;;;;;;;;17.40;99.90;;;;;;5041284;28;19925;-74
2023/06/09 05:37:20;;;;;;;;;;;17.40;99.90;;;;;;5057834;28;20336;-74
2023/06/09 05:39:47;;;;;;;;;;;17.50;99.90;;;;;;5045018;28;19960;-74
2023/06/09 05:42:15;;;;;;;;;;;17.50;99.90;;;;;;5038391;28;19931;-74
2023/06/09 05:44:41;;;;;;;;;;;17.60;99.90;;;;;;5047159;28;19924;-74
2023/06/09 05:47:10;;;;;;;;;;;17.60;99.90;;;;;;5040518;28;19924;-74
2023/06/09 05:49:37;;;;;;;;;;;17.70;99.90;;;;;;5052161;28;19925;-75
2023/06/09 05:52:04;;;;;;;;;;;17.80;99.90;;;;;;5042420;28;19925;-75
2023/06/09 05:54:31;;;;;;;;;;;17.90;99.90;;;;;;5048484;28;19925;-75
2023/06/09 05:56:58;;;;;;;;;;;18.00;99.90;;;;;;5038832;28;19925;-75
2023/06/09 05:59:25;;;;;;;;;;;18.10;99.90;;;;;;5034599;28;20024;-75
2023/06/09 06:01:51;;;;;;;;;;;18.20;99.90;;;;;;5042969;28;20312;-75
2023/06/09 06:04:20;;;;;;;;;;;18.30;99.90;;;;;;5041927;28;19932;-75
2023/06/09 06:06:47;;;;;;;;;;;18.30;99.90;;;;;;5041798;28;20013;-75
2023/06/09 06:09:14;;;;;;;;;;;18.40;99.90;;;;;;5061392;28;19931;-75
2023/06/09 06:11:40;;;;;;;;;;;18.50;99.90;;;;;;5053581;28;20032;-75
2023/06/09 06:14:07;;;;;;;;;;;18.60;99.90;;;;;;5034728;28;19925;-75
2023/06/09 06:16:34;;;;;;;;;;;18.70;99.90;;;;;;5038751;28;20403;-75
2023/06/09 06:19:01;;;;;;;;;;;18.80;99.90;;;;;;5057175;28;20385;-76
2023/06/09 06:21:29;;;;;;;;;;;18.80;99.90;;;;;;5040397;28;20009;-74
2023/06/09 06:23:56;;;;;;;;;;;18.90;99.90;;;;;;5038569;28;20404;-75
2023/06/09 06:26:23;;;;;;;;;;;19.00;99.90;;;;;;5045490;28;19925;-73
2023/06/09 06:28:50;;;;;;;;;;;19.00;99.90;;;;;;5037713;28;20385;-74
2023/06/09 06:31:17;;;;;;;;;;;19.10;99.90;;;;;;5046051;28;19928;-74
2023/06/09 06:33:44;;;;;;;;;;;19.20;99.90;;;;;;5038475;28;20480;-74
2023/06/09 06:36:11;;;;;;;;;;;19.20;99.90;;;;;;5030288;28;19940;-75
2023/06/09 06:38:40;;;;;;;;;;;19.30;99.90;;;;;;5038564;28;20409;-75
2023/06/09 06:41:06;;;;;;;;;;;19.30;99.90;;;;;;5051885;28;19951;-74
2023/06/09 06:43:33;;;;;;;;;;;19.30;99.90;;;;;;5040407;28;20442;-74
2023/06/09 06:46:06;;;;;;;;;;;19.40;99.90;;;;;;5037180;28;19929;-72
2023/06/09 06:48:33;;;;;;;;;;;19.60;99.90;;;;;;5046468;28;19925;-74
2023/06/09 06:51:00;;;;;;;;;;;19.70;99.90;;;;;;5038607;28;20362;-74
2023/06/09 06:53:27;;;;;;;;;;;19.70;99.90;;;;;;5040542;28;19933;-74
2023/06/09 06:55:55;;;;;;;;;;;19.70;99.90;;;;;;5040790;28;19925;-74
2023/06/09 06:58:22;;;;;;;;;;;19.80;99.90;;;;;;5040002;28;20384;-74
2023/06/09 07:00:49;;;;;;;;;;;19.90;99.90;;;;;;5041482;28;19925;-73
2023/06/09 07:03:16;;;;;;;;;;;20.00;99.90;;;;;;5039317;28;19925;-74
2023/06/09 07:05:43;;;;;;;;;;;20.10;99.90;;;;;;5045484;28;19961;-74
2023/06/09 07:08:10;;;;;;;;;;;20.20;99.90;;;;;;5033213;28;19957;-73
2023/06/09 07:10:37;;;;;;;;;;;20.20;99.90;;;;;;5030339;28;20289;-74
2023/06/09 07:13:05;;;;;;;;;;;20.30;99.90;;;;;;5038384;28;19929;-73
2023/06/09 07:15:32;;;;;;;;;;;20.30;99.90;;;;;;5040831;28;19951;-74
2023/06/09 07:17:59;;;;;;;;;;;20.40;99.90;;;;;;5041531;28;19928;-74
2023/06/09 07:20:26;;;;;;;;;;;20.50;99.90;;;;;;5036233;28;19925;-74
2023/06/09 07:22:52;;;;;;;;;;;20.60;99.90;;;;;;5034483;28;19932;-74
2023/06/09 07:25:19;;;;;;;;;;;20.70;99.90;;;;;;5038315;28;20292;-74
2023/06/09 07:27:47;;;;;;;;;;;20.70;99.90;;;;;;5037856;28;19984;-75
2023/06/09 07:30:16;;;;;;;;;;;20.80;99.90;;;;;;5034717;28;19925;-74
2023/06/09 07:32:43;;;;;;;;;;;20.90;99.90;;;;;;5033578;28;19926;-74
2023/06/09 07:35:12;;;;;;;;;;;20.90;99.90;;;;;;5042254;28;19925;-75
2023/06/09 07:37:40;;;;;;;;;;;20.90;99.90;;;;;;5029595;28;19959;-73
2023/06/09 07:40:08;;;;;;;;;;;20.90;99.90;;;;;;5036065;28;19925;-74
2023/06/09 07:42:34;;;;;;;;;;;20.90;99.90;;;;;;5041122;28;19932;-75
2023/06/09 07:45:01;;;;;;;;;;;20.90;99.90;;;;;;5038516;28;19932;-74
2023/06/09 07:47:29;;;;;;;;;;;21.00;99.90;;;;;;5033124;28;19929;-74
2023/06/09 07:49:56;;;;;;;;;;;21.00;99.90;;;;;;5034225;28;19925;-74
2023/06/09 07:52:23;;;;;;;;;;;21.00;99.90;;;;;;5034998;28;19924;-75
2023/06/09 07:54:50;;;;;;;;;;;21.10;99.90;;;;;;5035170;28;19929;-74
2023/06/09 07:57:17;;;;;;;;;;;21.20;99.90;;;;;;5035091;28;19925;-75
2023/06/09 07:59:45;;;;;;;;;;;21.30;99.90;;;;;;5033902;28;20346;-74
2023/06/09 08:02:12;;;;;;;;;;;21.30;99.90;;;;;;5036676;28;19955;-75
2023/06/09 08:04:41;;;;;;;;;;;21.40;99.90;;;;;;5027885;28;19929;-75
2023/06/09 08:07:07;;;;;;;;;;;21.50;99.90;;;;;;5047710;28;19936;-75
2023/06/09 08:09:34;;;;;;;;;;;21.60;99.90;;;;;;5038266;28;19925;-75
2023/06/09 08:12:01;;;;;;;;;;;21.70;99.90;;;;;;5037605;28;20320;-75
2023/06/09 08:14:28;;;;;;;;;;;21.70;99.90;;;;;;5031728;28;19929;-75
2023/06/09 08:16:55;;;;;;;;;;;21.80;99.90;;;;;;5042793;28;19972;-76
2023/06/09 08:19:22;;;;;;;;;;;21.90;99.90;;;;;;5030038;28;19944;-75
2023/06/09 08:21:50;;;;;;;;;;;21.90;99.90;;;;;;5033062;28;19928;-76
2023/06/09 08:24:18;;;;;;;;;;;22.00;99.90;;;;;;5037491;28;19925;-76
2023/06/09 08:26:44;;;;;;;;;;;22.10;99.90;;;;;;5036258;28;19925;-78
2023/06/09 08:29:12;;;;;;;;;;;22.10;99.90;;;;;;5051111;28;19925;-76
2023/06/09 08:31:39;;;;;;;;;;;22.20;99.90;;;;;;5042998;28;19936;-75
2023/06/09 08:34:06;;;;;;;;;;;22.20;99.90;;;;;;5050969;28;19925;-74
2023/06/09 08:36:33;;;;;;;;;;;22.30;99.90;;;;;;5034508;28;19955;-76
2023/06/09 08:39:01;;;;;;;;;;;22.40;99.90;;;;;;5032219;28;19932;-75
2023/06/09 08:41:32;;;;;;;;;;;22.40;99.90;;;;;;5031454;28;19925;-75
2023/06/09 08:43:59;;;;;;;;;;;22.60;99.90;;;;;;5039423;28;19933;-75
2023/06/09 08:46:26;;;;;;;;;;;22.60;99.90;;;;;;5034390;28;19925;-76
2023/06/09 08:48:55;;;;;;;;;;;22.70;99.90;;;;;;5033785;28;19925;-75
2023/06/09 08:51:22;;;;;;;;;;;22.80;99.90;;;;;;5033761;28;19929;-75
2023/06/09 08:53:49;;;;;;;;;;;22.90;99.90;;;;;;5030203;28;19968;-75
2023/06/09 08:56:18;;;;;;;;;;;23.10;99.90;;;;;;5041711;28;19925;-75
2023/06/09 08:58:45;;;;;;;;;;;23.20;99.90;;;;;;5031790;28;19929;-74
2023/06/09 09:01:12;;;;;;;;;;;23.30;99.90;;;;;;5041611;28;19925;-75
2023/06/09 09:03:39;;;;;;;;;;;23.40;99.90;;;;;;5032462;28;19929;-75
2023/06/09 09:06:06;;;;;;;;;;;23.40;99.90;;;;;;5049720;28;19925;-74
2023/06/09 09:08:33;;;;;;;;;;;23.30;99.90;;;;;;5037886;28;19932;-74
2023/06/09 09:11:00;;;;;;;;;;;23.40;99.90;;;;;;5034900;28;19926;-74
2023/06/09 09:13:30;;;;;;;;;;;23.50;99.90;;;;;;5045501;28;19925;-74
2023/06/09 09:15:57;;;;;;;;;;;23.60;99.90;;;;;;5039049;28;19957;-74
2023/06/09 09:18:24;;;;;;;;;;;23.80;99.90;;;;;;5042024;28;19924;-74
2023/06/09 09:20:50;;;;;;;;;;;23.90;99.90;;;;;;5059471;28;20387;-75
2023/06/09 09:23:17;;;;;;;;;;;24.00;99.90;;;;;;5042539;28;19925;-75
2023/06/09 09:25:44;;;;;;;;;;;24.00;99.90;;;;;;5029872;28;19932;-75
2023/06/09 09:28:12;;;;;;;;;;;24.10;99.90;;;;;;5055241;28;19925;-75
2023/06/09 09:30:44;;;;;;;;;;;24.30;99.90;;;;;;5046999;28;19975;-74
2023/06/09 09:33:11;;;;;;;;;;;24.40;99.90;;;;;;5038216;28;19932;-74
2023/06/09 09:35:38;;;;;;;;;;;24.50;99.90;;;;;;5030992;28;19926;-74
2023/06/09 09:38:06;;;;;;;;;;;24.40;99.90;;;;;;5050043;28;20346;-74
2023/06/09 09:40:33;;;;;;;;;;;24.50;99.90;;;;;;5033460;28;19925;-74
2023/06/09 09:43:01;;;;;;;;;;;24.50;99.90;;;;;;5037987;28;20351;-74
2023/06/09 09:45:29;;;;;;;;;;;24.70;99.90;;;;;;5040671;28;19964;-74
2023/06/09 09:48:08;;;;;;;;;;;24.80;99.90;;;;;;5039616;28;20019;-74
2023/06/09 09:50:36;;;;;;;;;;;25.00;99.90;;;;;;5034453;28;19925;-72
2023/06/09 09:53:04;;;;;;;;;;;25.10;99.90;;;;;;5038984;28;20316;-74
2023/06/09 09:55:30;;;;;;;;;;;25.30;99.90;;;;;;5036041;28;19925;-74
2023/06/09 09:57:58;;;;;;;;;;;25.40;99.90;;;;;;5036855;28;19926;-74
2023/06/09 10:00:26;;;;;;;;;;;25.50;99.90;;;;;;5027480;28;19925;-75
2023/06/09 10:02:55;;;;;;;;;;;25.60;99.90;;;;;;5031455;28;19947;-73
2023/06/09 10:05:23;;;;;;;;;;;25.70;99.90;;;;;;5038863;28;20400;-74
2023/06/09 10:07:53;;;;;;;;;;;25.70;99.90;;;;;;5033171;28;19928;-74
2023/06/09 10:10:20;;;;;;;;;;;25.70;99.90;;;;;;5056378;28;19929;-74
2023/06/09 10:12:47;;;;;;;;;;;25.70;99.90;;;;;;5040422;28;19928;-73
2023/06/09 10:15:14;;;;;;;;;;;25.70;99.90;;;;;;5042700;28;19929;-75
2023/06/09 10:17:42;;;;;;;;;;;25.90;99.90;;;;;;5043289;28;19932;-74
2023/06/09 10:20:10;;;;;;;;;;;26.00;99.90;;;;;;5039483;28;19936;-73
2023/06/09 10:22:38;;;;;;;;;;;26.20;99.90;;;;;;5047246;28;20335;-74
2023/06/09 10:25:06;;;;;;;;;;;26.20;99.90;;;;;;5036183;28;20312;-75
2023/06/09 10:27:33;;;;;;;;;;;26.30;99.90;;;;;;5024509;28;19964;-74
2023/06/09 10:30:01;;;;;;;;;;;26.30;99.90;;;;;;5040879;28;20347;-75
2023/06/09 10:32:29;;;;;;;;;;;26.40;99.90;;;;;;5033190;28;20000;-75
2023/06/09 10:34:57;;;;;;;;;;;26.30;99.90;;;;;;5032322;28;19925;-74
2023/06/09 10:37:27;;;;;;;;;;;26.50;99.90;;;;;;5038381;28;19929;-74
2023/06/09 10:39:58;;;;;;;;;;;26.50;99.90;;;;;;5036219;28;20007;-74
2023/06/09 10:42:28;;;;;;;;;;;26.50;99.90;;;;;;5031770;28;19948;-74
2023/06/09 10:44:59;;;;;;;;;;;26.60;99.90;;;;;;5038241;28;19925;-75
2023/06/09 10:47:43;;;;;;;;;;;26.70;99.90;;;;;;5041298;28;19925;-75
2023/06/09 10:50:22;;;;;;;;;;;26.80;99.90;;;;;;5041148;28;20375;-72
2023/06/09 10:52:55;;;;;;;;;;;26.90;99.90;;;;;;5037132;28;19945;-74
2023/06/09 10:55:27;;;;;;;;;;;27.00;99.90;;;;;;5038847;28;19955;-75
2023/06/09 10:57:54;;;;;;;;;;;27.00;99.90;;;;;;5037711;28;20296;-75
2023/06/09 11:00:21;;;;;;;;;;;27.10;99.90;;;;;;5041500;28;19925;-74
2023/06/09 11:02:49;;;;;;;;;;;27.30;99.90;;;;;;5032492;28;19925;-75
2023/06/09 11:05:16;;;;;;;;;;;27.50;99.90;;;;;;5035718;28;19951;-76
2023/06/09 11:07:45;;;;;;;;;;;27.50;99.90;;;;;;5032860;28;19925;-74
2023/06/09 11:10:33;;;;;;;;;;;27.60;99.90;;;;;;5048029;28;19940;-76
2023/06/09 11:13:03;;;;;;;;;;;27.80;99.90;;;;;;5030601;28;19929;-75
2023/06/09 11:16:03;;;;;;;;;;;28.00;99.90;;;;;;5031312;28;19933;-76
2023/06/09 11:18:31;;;;;;;;;;;28.20;99.90;;;;;;4950660;28;19931;-75
2023/06/09 11:21:10;;;;;;;;;;;28.30;99.90;;;;;;4955685;28;20465;-75
2023/06/09 11:23:55;;;;;;;;;;;28.40;99.90;;;;;;4992368;28;19924;-74
2023/06/09 11:26:23;;;;;;;;;;;28.60;99.90;;;;;;5044349;28;19937;-75
2023/06/09 11:28:51;;;;;;;;;;;28.60;99.90;;;;;;5040287;28;19925;-75
2023/06/09 11:31:18;;;;;;;;;;;28.70;99.90;;;;;;5037046;28;20381;-75
2023/06/09 11:33:49;;;;;;;;;;;28.80;99.90;;;;;;5040519;28;19947;-75
2023/06/09 11:36:20;;;;;;;;;;;29.10;99.90;;;;;;5056901;28;19925;-76
2023/06/09 11:38:47;;;;;;;;;;;29.70;99.90;;;;;;5036725;28;19925;-74
2023/06/09 11:41:15;;;;;;;;;;;30.80;99.90;;;;;;5035488;28;20292;-75
2023/06/09 11:43:56;;;;;;;;;;;32.00;99.90;;;;;;5034633;28;20455;-77
2023/06/09 11:46:23;;;;;;;;;;;32.70;99.90;;;;;;5036846;28;20311;-74
2023/06/09 11:49:03;;;;;;;;;;;33.70;99.90;;;;;;5039552;28;19925;-75
2023/06/09 11:51:50;;;;;;;;;;;34.30;99.90;;;;;;5037354;28;19929;-74
2023/06/09 11:54:17;;;;;;;;;;;35.30;99.90;;;;;;5033915;28;19926;-75
2023/06/09 11:56:46;;;;;;;;;;;35.90;99.90;;;;;;5038421;28;19925;-75
2023/06/09 11:59:15;;;;;;;;;;;36.50;99.90;;;;;;5035259;28;19925;-75
2023/06/09 12:01:42;;;;;;;;;;;36.90;99.90;;;;;;5044825;28;19925;-75
2023/06/09 12:04:09;;;;;;;;;;;36.80;99.90;;;;;;5036073;28;19978;-75
2023/06/09 12:06:37;;;;;;;;;;;37.10;99.90;;;;;;5050245;28;20404;-76
2023/06/09 12:09:16;;;;;;;;;;;36.70;99.90;;;;;;5032504;28;19925;-76
2023/06/09 12:11:49;;;;;;;;;;;36.90;99.90;;;;;;5034332;28;19979;-75
2023/06/09 12:14:17;;;;;;;;;;;37.70;99.90;;;;;;5034314;28;19925;-76
2023/06/09 12:16:44;;;;;;;;;;;37.50;99.90;;;;;;5038660;28;19925;-80
2023/06/09 12:19:11;;;;;;;;;;;37.10;99.90;;;;;;5032657;28;19937;-75
2023/06/09 12:21:38;;;;;;;;;;;37.50;99.90;;;;;;5029319;28;19932;-71
2023/06/09 12:24:05;;;;;;;;;;;37.70;99.90;;;;;;5028560;28;19934;-82
2023/06/09 12:26:38;;;;;;;;;;;37.70;99.90;;;;;;5034663;28;20136;-76
2023/06/09 12:29:04;;;;;;;;;;;37.30;99.90;;;;;;5043738;28;19925;-78
2023/06/09 12:31:33;;;;;;;;;;;37.60;99.90;;;;;;5034890;28;19936;-75
2023/06/09 12:34:00;;;;;;;;;;;37.90;99.90;;;;;;5038701;28;19925;-76
2023/06/09 12:36:27;;;;;;;;;;;38.10;99.90;;;;;;5032520;28;20317;-76
2023/06/09 12:38:54;;;;;;;;;;;38.30;99.90;;;;;;5032823;28;19960;-72
2023/06/09 12:41:21;;;;;;;;;;;37.90;99.90;;;;;;5034267;28;19929;-74
2023/06/09 12:43:49;;;;;;;;;;;37.30;99.90;;;;;;5032450;28;19957;-75
2023/06/09 12:46:19;;;;;;;;;;;36.90;99.90;;;;;;5044520;28;19928;-76
2023/06/09 12:48:57;;;;;;;;;;;36.90;99.90;;;;;;5043855;28;20311;-76
2023/06/09 12:51:24;;;;;;;;;;;36.80;99.90;;;;;;5040008;28;19932;-75
2023/06/09 12:53:51;;;;;;;;;;;37.00;99.90;;;;;;5040564;28;20492;-75
2023/06/09 12:56:18;;;;;;;;;;;36.80;99.90;;;;;;5032045;28;19964;-76
2023/06/09 12:58:45;;;;;;;;;;;37.30;99.90;;;;;;5033410;28;20000;-76
2023/06/09 13:01:12;;;;;;;;;;;37.80;99.90;;;;;;5039504;28;19972;-76
2023/06/09 13:03:39;;;;;;;;;;;38.70;99.90;;;;;;5036910;28;19929;-75
2023/06/09 13:06:07;;;;;;;;;;;39.10;99.90;;;;;;5031949;28;20339;-76
2023/06/09 13:08:34;;;;;;;;;;;39.40;99.90;;;;;;5035213;28;19928;-76
2023/06/09 13:11:01;;;;;;;;;;;39.70;99.90;;;;;;5032450;28;19929;-76
2023/06/09 13:13:28;;;;;;;;;;;40.30;99.90;;;;;;5035825;28;19925;-77
2023/06/09 13:15:55;;;;;;;;;;;40.30;99.90;;;;;;5032912;28;19979;-76
2023/06/09 13:18:22;;;;;;;;;;;40.20;99.90;;;;;;5051436;28;19925;-77
2023/06/09 13:20:49;;;;;;;;;;;;;;;;;;5032614;28;19925;-77
2023/06/09 13:23:17;;;;;;;;;;;41.00;99.90;;;;;;5031760;28;19929;-77
2023/06/09 13:25:44;;;;;;;;;;;40.10;99.90;;;;;;5031676;28;19925;-76
2023/06/09 13:28:11;;;;;;;;;;;39.50;99.90;;;;;;5031693;28;19925;-76
2023/06/09 13:30:38;;;;;;;;;;;38.80;99.90;;;;;;5027954;28;19928;-77
2023/06/09 13:33:05;;;;;;;;;;;39.10;99.90;;;;;;5040789;28;20046;-76
2023/06/09 13:35:33;;;;;;;;;;;39.30;99.90;;;;;;5039024;28;19951;-77
2023/06/09 13:38:03;;;;;;;;;;;38.50;99.90;;;;;;5007703;28;22110;-77
2023/06/09 13:40:31;;;;;;;;;;;38.80;99.90;;;;;;5058956;28;19925;-77
2023/06/09 13:42:58;;;;;;;;;;;39.30;99.90;;;;;;5037211;28;19924;-77
2023/06/09 13:45:26;;;;;;;;;;;40.00;99.90;;;;;;5031577;28;19925;-76
2023/06/09 13:47:54;;;;;;;;;;;40.40;99.90;;;;;;5031370;28;19948;-77
2023/06/09 13:50:21;;;;;;;;;;;41.20;99.90;;;;;;5040441;28;20036;-75
2023/06/09 13:52:48;;;;;;;;;;;40.70;99.90;;;;;;5041154;28;20348;-77
2023/06/09 13:55:14;;;;;;;;;;;39.90;99.90;;;;;;5031112;28;19925;-77
2023/06/09 13:57:43;;;;;;;;;;;40.00;99.90;;;;;;5031110;28;19929;-77
2023/06/09 14:00:11;;;;;;;;;;;40.30;99.90;;;;;;5039624;28;19960;-77
2023/06/09 14:02:38;;;;;;;;;;;40.70;99.90;;;;;;5028311;28;19925;-77
2023/06/09 14:05:06;;;;;;;;;;;40.90;99.90;;;;;;5040415;28;19932;-76
2023/06/09 14:07:32;;;;;;;;;;;40.60;99.90;;;;;;5044557;28;19929;-78
2023/06/09 14:09:59;;;;;;;;;;;39.90;99.90;;;;;;5037675;28;19925;-76
2023/06/09 14:12:26;;;;;;;;;;;39.60;99.90;;;;;;5038487;28;19925;-77
2023/06/09 14:14:54;;;;;;;;;;;39.00;99.90;;;;;;5034222;28;20382;-76
2023/06/09 14:17:21;;;;;;;;;;;38.60;99.90;;;;;;5033396;28;19925;-76
2023/06/09 14:19:48;;;;;;;;;;;39.30;99.90;;;;;;5031848;28;19926;-76
2023/06/09 14:22:15;;;;;;;;;;;39.00;99.90;;;;;;5061849;28;19924;-77
2023/06/09 14:24:41;;;;;;;;;;;38.60;99.90;;;;;;5030441;28;20289;-76